createdAt,value
2023-03-20T00:00:50.073Z,32.75
2023-03-20T00:03:17.181Z,34.73
2023-03-20T00:05:43.930Z,31.33
2023-03-20T00:08:10.845Z,32.35
2023-03-20T00:10:40.919Z,31.05
2023-03-20T00:13:23.054Z,23.40
2023-03-20T00:15:49.651Z,24.57
2023-03-20T00:18:18.951Z,24.58
2023-03-20T00:20:46.674Z,20.20
2023-03-20T00:23:13.939Z,18.58
2023-03-20T00:25:42.035Z,19.80
2023-03-20T00:28:57.725Z,18.80
2023-03-20T00:31:28.372Z,20.85
2023-03-20T00:33:57.524Z,18.42
2023-03-20T00:36:24.639Z,22.30
2023-03-20T00:38:51.759Z,19.27
2023-03-20T00:41:25.760Z,16.50
2023-03-20T00:43:59.457Z,18.35
2023-03-20T00:46:26.738Z,15.27
2023-03-20T00:48:53.480Z,17.48
2023-03-20T00:51:20.984Z,14.63
2023-03-20T00:53:47.550Z,14.40
2023-03-20T00:56:42.035Z,15.40
2023-03-20T00:59:16.982Z,13.43
2023-03-20T01:01:43.834Z,13.40
2023-03-20T01:04:13.975Z,18.15
2023-03-20T01:06:40.520Z,14.23
2023-03-20T01:09:07.028Z,14.95
2023-03-20T01:11:33.958Z,10.50
2023-03-20T01:14:00.652Z,13.20
2023-03-20T01:16:27.321Z,12.88
2023-03-20T01:18:54.192Z,15.27
2023-03-20T01:21:21.400Z,14.93
2023-03-20T01:23:49.579Z,12.75
2023-03-20T01:26:29.097Z,15.50
2023-03-20T01:28:55.675Z,16.42
2023-03-20T01:31:23.047Z,15.17
2023-03-20T01:33:49.586Z,15.15
2023-03-20T01:36:20.126Z,13.95
2023-03-20T01:38:51.315Z,14.68
2023-03-20T01:41:18.574Z,14.93
2023-03-20T01:43:46.251Z,14.30
2023-03-20T01:46:22.715Z,15.90
2023-03-20T01:48:52.408Z,17.85
2023-03-20T01:51:22.805Z,16.17
2023-03-20T01:53:57.701Z,17.42
2023-03-20T01:56:25.355Z,19.13
2023-03-20T01:59:20.584Z,17.30
2023-03-20T02:01:47.389Z,20.70
2023-03-20T02:04:19.314Z,18.55
2023-03-20T02:06:51.843Z,20.67
2023-03-20T02:09:28.913Z,19.47
2023-03-20T02:11:57.181Z,20.42
2023-03-20T02:14:24.280Z,21.70
2023-03-20T02:16:59.411Z,21.33
2023-03-20T02:20:01.084Z,21.92
2023-03-20T02:22:49.848Z,23.60
2023-03-20T02:25:37.689Z,22.58
2023-03-20T02:28:41.490Z,23.92
2023-03-20T02:31:46.156Z,25.90
2023-03-20T02:34:46.922Z,23.17
2023-03-20T02:37:46.675Z,27.23
2023-03-20T02:40:31.502Z,24.25
2023-03-20T02:43:04.129Z,24.15
2023-03-20T02:45:57.720Z,21.85
2023-03-20T02:48:49.812Z,25.80
2023-03-20T02:51:37.518Z,22.60
2023-03-20T02:54:25.559Z,20.60
2023-03-20T02:57:28.654Z,25.25
2023-03-20T03:00:29.239Z,20.27
2023-03-20T03:03:18.627Z,21.77
2023-03-20T03:05:50.858Z,22.33
2023-03-20T03:08:20.572Z,20.83
2023-03-20T03:10:55.513Z,22.52
2023-03-20T03:13:29.007Z,22.15
2023-03-20T03:16:03.232Z,21.20
2023-03-20T03:18:32.173Z,18.97
2023-03-20T03:21:01.523Z,20.67
2023-03-20T03:23:43.434Z,20.33
2023-03-20T03:26:15.236Z,21.65
2023-03-20T03:28:49.035Z,17.42
2023-03-20T03:31:18.141Z,17.73
2023-03-20T03:33:48.162Z,16.85
2023-03-20T03:36:27.355Z,15.55
2023-03-20T03:39:22.335Z,15.10
2023-03-20T03:41:53.684Z,20.20
2023-03-20T03:44:31.604Z,15.73
2023-03-20T03:47:03.690Z,17.17
2023-03-20T03:49:33.951Z,14.50
2023-03-20T03:52:05.756Z,15.63
2023-03-20T03:54:42.890Z,15.75
2023-03-20T03:57:42.108Z,15.93
2023-03-20T04:00:16.322Z,13.40
2023-03-20T04:02:46.704Z,15.93
2023-03-20T04:05:15.341Z,15.85
2023-03-20T04:07:46.432Z,16.08
2023-03-20T04:10:13.927Z,12.17
2023-03-20T04:12:43.370Z,14.35
2023-03-20T04:15:12.050Z,11.77
2023-03-20T04:17:38.884Z,11.23
2023-03-20T04:20:08.149Z,13.90
2023-03-20T04:22:35.066Z,9.73
2023-03-20T04:25:20.056Z,10.18
2023-03-20T04:27:47.264Z,13.57
2023-03-20T04:30:23.199Z,10.48
2023-03-20T04:33:08.001Z,12.43
2023-03-20T04:35:47.952Z,9.67
2023-03-20T04:38:17.089Z,9.10
2023-03-20T04:40:45.381Z,12.55
2023-03-20T04:43:12.171Z,10.40
2023-03-20T04:45:39.271Z,8.63
2023-03-20T04:48:08.460Z,8.23
2023-03-20T04:50:35.954Z,9.05
2023-03-20T04:53:03.144Z,12.70
2023-03-20T04:55:29.733Z,10.75
2023-03-20T04:57:56.445Z,9.68
2023-03-20T05:00:24.249Z,11.40
2023-03-20T05:02:50.785Z,11.52
2023-03-20T05:05:17.527Z,8.77
2023-03-20T05:07:44.592Z,10.23
2023-03-20T05:10:16.998Z,9.38
2023-03-20T05:12:50.922Z,11.87
2023-03-20T05:15:23.382Z,10.13
2023-03-20T05:17:51.691Z,12.10
2023-03-20T05:20:37.008Z,14.20
2023-03-20T05:23:26.944Z,12.60
2023-03-20T05:26:19.663Z,12.47
2023-03-20T05:29:04.881Z,14.77
2023-03-20T05:31:33.955Z,10.15
2023-03-20T05:34:14.846Z,15.38
2023-03-20T05:37:06.393Z,13.13
2023-03-20T05:39:48.175Z,15.47
2023-03-20T05:42:32.518Z,13.65
2023-03-20T05:45:19.113Z,15.20
2023-03-20T05:47:45.782Z,16.00
2023-03-20T05:50:34.310Z,16.52
2023-03-20T05:53:13.605Z,16.07
2023-03-20T05:55:54.554Z,15.50
2023-03-20T05:58:39.209Z,20.30
2023-03-20T06:01:33.342Z,16.05
2023-03-20T06:04:20.553Z,18.85
2023-03-20T06:07:02.919Z,20.93
2023-03-20T06:09:29.484Z,16.73
2023-03-20T06:11:57.501Z,21.80
2023-03-20T06:14:24.036Z,18.67
2023-03-20T06:16:57.173Z,25.83
2023-03-20T06:19:24.640Z,26.80
2023-03-20T06:21:51.517Z,22.00
2023-03-20T06:24:20.617Z,21.52
2023-03-20T06:26:47.400Z,22.83
2023-03-20T06:29:14.386Z,20.90
2023-03-20T06:31:41.458Z,21.43
2023-03-20T06:34:12.449Z,20.05
2023-03-20T06:36:45.454Z,23.65
2023-03-20T06:39:18.049Z,20.23
2023-03-20T06:41:44.670Z,21.35
2023-03-20T06:44:11.576Z,25.40
2023-03-20T06:47:01.401Z,21.67
2023-03-20T06:49:28.059Z,25.05
2023-03-20T06:51:55.779Z,19.55
2023-03-20T06:54:25.353Z,21.27
2023-03-20T06:56:52.115Z,21.70
2023-03-20T06:59:21.080Z,22.35
2023-03-20T07:01:48.129Z,19.83
2023-03-20T07:04:14.743Z,18.75
2023-03-20T07:06:47.570Z,18.27
2023-03-20T07:09:14.255Z,17.80
2023-03-20T07:11:41.588Z,18.52
2023-03-20T07:14:08.547Z,21.77
2023-03-20T07:16:49.099Z,18.17
2023-03-20T07:19:16.049Z,17.02
2023-03-20T07:21:45.127Z,18.97
2023-03-20T07:24:14.038Z,17.88
2023-03-20T07:26:41.269Z,16.92
2023-03-20T07:29:08.138Z,14.60
2023-03-20T07:31:35.745Z,17.00
2023-03-20T07:34:15.557Z,16.50
2023-03-20T07:36:42.640Z,17.10
2023-03-20T07:39:13.830Z,17.30
2023-03-20T07:41:46.373Z,17.67
2023-03-20T07:44:24.907Z,18.17
2023-03-20T07:46:52.711Z,18.53
2023-03-20T07:49:22.798Z,13.00
2023-03-20T07:51:50.454Z,18.58
2023-03-20T07:54:17.247Z,16.85
2023-03-20T07:56:44.062Z,16.75
2023-03-20T07:59:10.837Z,17.83
2023-03-20T08:01:37.333Z,13.88
2023-03-20T08:04:04.041Z,18.25
2023-03-20T08:06:30.826Z,15.70
2023-03-20T08:08:57.836Z,16.08
2023-03-20T08:11:24.418Z,13.07
2023-03-20T08:13:51.035Z,14.02
2023-03-20T08:16:17.666Z,19.90
2023-03-20T08:18:44.284Z,16.02
2023-03-20T08:21:10.945Z,19.40
2023-03-20T08:23:37.533Z,21.40
2023-03-20T08:26:04.025Z,18.60
2023-03-20T08:28:46.240Z,15.73
2023-03-20T08:31:14.478Z,16.15
2023-03-20T08:33:41.183Z,14.15
2023-03-20T08:36:08.052Z,18.30
2023-03-20T08:38:34.554Z,16.45
2023-03-20T08:41:01.199Z,21.40
2023-03-20T08:43:27.855Z,17.85
2023-03-20T08:45:54.510Z,17.02
2023-03-20T08:48:21.142Z,16.00
2023-03-20T08:50:47.674Z,19.50
2023-03-20T08:53:14.293Z,14.65
2023-03-20T08:55:41.374Z,18.38
2023-03-20T08:58:07.858Z,14.65
2023-03-20T09:00:34.435Z,22.87
2023-03-20T09:03:01.101Z,16.73
2023-03-20T09:05:27.718Z,12.07
2023-03-20T09:07:54.192Z,14.77
2023-03-20T09:10:20.900Z,14.50
2023-03-20T09:12:47.594Z,15.97
2023-03-20T09:15:14.172Z,15.20
2023-03-20T09:17:40.776Z,17.67
2023-03-20T09:20:08.432Z,18.45
2023-03-20T09:22:35.481Z,16.50
2023-03-20T09:25:02.120Z,15.77
2023-03-20T09:27:28.648Z,17.70
2023-03-20T09:29:55.156Z,17.70
2023-03-20T09:32:21.721Z,14.32
2023-03-20T09:34:48.322Z,17.13
2023-03-20T09:37:14.834Z,17.73
2023-03-20T09:39:41.644Z,18.38
2023-03-20T09:42:34.165Z,15.50
2023-03-20T09:45:14.333Z,14.10
2023-03-20T09:47:50.917Z,15.82
2023-03-20T09:50:43.090Z,16.57
2023-03-20T09:53:27.754Z,14.38
2023-03-20T09:55:54.397Z,16.08
2023-03-20T09:58:25.733Z,15.50
2023-03-20T10:00:56.837Z,14.43
2023-03-20T10:03:29.964Z,16.27
2023-03-20T10:06:00.397Z,15.55
2023-03-20T10:08:32.773Z,10.57
2023-03-20T10:11:02.206Z,10.48
2023-03-20T10:13:44.934Z,13.00
2023-03-20T10:16:44.200Z,11.33
2023-03-20T10:19:28.132Z,10.32
2023-03-20T10:22:13.150Z,10.25
2023-03-20T10:24:43.084Z,12.95
2023-03-20T10:27:32.551Z,10.18
2023-03-20T10:30:36.664Z,12.53
2023-03-20T10:33:26.593Z,7.97
2023-03-20T10:36:28.859Z,8.93
2023-03-20T10:39:04.689Z,8.43
2023-03-20T10:41:34.934Z,9.32
2023-03-20T10:44:02.732Z,9.10
2023-03-20T10:46:35.194Z,8.57
2023-03-20T10:49:13.964Z,8.05
2023-03-20T10:51:51.075Z,8.52
2023-03-20T10:54:51.631Z,9.30
2023-03-20T10:57:24.910Z,8.57
2023-03-20T10:59:53.008Z,9.65
2023-03-20T11:02:21.837Z,9.07
2023-03-20T11:04:48.329Z,7.05
2023-03-20T11:07:48.236Z,10.13
2023-03-20T11:10:17.071Z,11.90
2023-03-20T11:12:48.934Z,8.32
2023-03-20T11:15:21.615Z,8.93
2023-03-20T11:17:59.521Z,8.77
2023-03-20T11:20:27.577Z,9.25
2023-03-20T11:23:00.025Z,9.30
2023-03-20T11:25:33.975Z,9.88
2023-03-20T11:28:19.264Z,8.25
2023-03-20T11:31:03.554Z,7.05
2023-03-20T11:33:31.011Z,9.15
2023-03-20T11:35:59.528Z,8.43
2023-03-20T11:38:26.166Z,10.27
2023-03-20T11:40:53.611Z,9.65
2023-03-20T11:43:22.408Z,9.23
2023-03-20T11:46:00.580Z,10.35
2023-03-20T11:48:38.302Z,10.13
2023-03-20T11:51:06.370Z,5.63
2023-03-20T11:53:36.095Z,7.75
2023-03-20T11:56:07.943Z,9.02
2023-03-20T11:58:38.430Z,8.95
2023-03-20T12:01:08.413Z,7.80
2023-03-20T12:03:55.349Z,6.93
2023-03-20T12:06:25.979Z,7.50
2023-03-20T12:09:01.960Z,9.05
2023-03-20T12:12:00.213Z,6.15
2023-03-20T12:14:34.324Z,6.30
2023-03-20T12:17:19.234Z,10.70
2023-03-20T12:19:47.337Z,9.63
2023-03-20T12:22:27.237Z,6.85
2023-03-20T12:25:15.209Z,10.32
2023-03-20T12:27:48.916Z,6.53
2023-03-20T12:30:22.661Z,10.57
2023-03-20T12:32:58.766Z,7.75
2023-03-20T12:35:34.829Z,11.35
2023-03-20T12:38:01.507Z,8.23
2023-03-20T12:40:39.356Z,13.90
2023-03-20T12:43:22.399Z,7.32
2023-03-20T12:46:09.498Z,11.73
2023-03-20T12:48:56.639Z,10.43
2023-03-20T12:51:59.567Z,8.85
2023-03-20T12:54:33.506Z,14.07
2023-03-20T12:57:22.434Z,12.23
2023-03-20T13:00:04.213Z,13.75
2023-03-20T13:02:33.891Z,10.27
2023-03-20T13:05:08.612Z,14.15
2023-03-20T13:08:21.352Z,10.57
2023-03-20T13:11:08.360Z,17.27
2023-03-20T13:13:48.645Z,13.13
2023-03-20T13:16:31.482Z,12.02
2023-03-20T13:19:16.600Z,16.65
2023-03-20T13:21:56.869Z,10.40
2023-03-20T13:24:35.506Z,16.15
2023-03-20T13:27:07.859Z,15.35
2023-03-20T13:29:47.304Z,15.43
2023-03-20T13:32:54.913Z,15.02
2023-03-20T13:35:43.427Z,12.10
2023-03-20T13:38:18.915Z,13.00
2023-03-20T13:40:47.053Z,16.23
2023-03-20T13:43:18.132Z,16.30
2023-03-20T13:45:44.627Z,11.90
2023-03-20T13:48:34.485Z,16.03
2023-03-20T13:51:11.030Z,16.60
2023-03-20T13:54:14.689Z,16.40
2023-03-20T13:56:57.149Z,18.83
2023-03-20T13:59:54.508Z,17.50
2023-03-20T14:02:23.920Z,19.10
2023-03-20T14:04:52.648Z,18.90
2023-03-20T14:07:41.965Z,20.17
2023-03-20T14:10:24.035Z,15.60
2023-03-20T14:12:56.528Z,21.20
2023-03-20T14:15:27.974Z,18.97
2023-03-20T14:17:54.849Z,20.13
2023-03-20T14:20:39.414Z,20.55
2023-03-20T14:23:07.356Z,16.92
2023-03-20T14:25:40.592Z,22.30
2023-03-20T14:28:13.112Z,23.80
2023-03-20T14:30:47.517Z,21.23
2023-03-20T14:33:17.073Z,18.40
2023-03-20T14:36:09.918Z,19.63
2023-03-20T14:38:52.636Z,17.58
2023-03-20T14:41:49.253Z,18.47
2023-03-20T14:44:48.047Z,18.33
2023-03-20T14:47:25.901Z,21.45
2023-03-20T14:50:03.660Z,21.20
2023-03-20T14:52:53.391Z,21.17
2023-03-20T14:55:19.913Z,20.80
2023-03-20T14:57:56.171Z,17.40
2023-03-20T15:00:25.711Z,20.70
2023-03-20T15:02:54.540Z,19.67
2023-03-20T15:05:29.308Z,20.17
2023-03-20T15:08:05.794Z,22.23
2023-03-20T15:10:37.332Z,20.92
2023-03-20T15:13:08.011Z,19.45
2023-03-20T15:15:34.631Z,23.10
2023-03-20T15:18:21.377Z,20.05
2023-03-20T15:20:48.941Z,19.87
2023-03-20T15:23:15.718Z,23.20
2023-03-20T15:25:45.857Z,19.45
2023-03-20T15:28:19.615Z,20.88
2023-03-20T15:30:48.481Z,25.70
2023-03-20T15:33:39.484Z,25.77
2023-03-20T15:36:18.181Z,30.98
2023-03-20T15:38:46.818Z,28.10
2023-03-20T15:41:24.843Z,26.13
2023-03-20T15:43:51.855Z,25.58
2023-03-20T15:46:19.529Z,28.33
2023-03-20T15:48:50.217Z,28.52
2023-03-20T15:51:18.206Z,30.67
2023-03-20T15:53:47.093Z,27.48
2023-03-20T15:56:19.013Z,24.52
2023-03-20T15:58:48.970Z,26.17
2023-03-20T16:01:21.051Z,32.45
2023-03-20T16:03:48.575Z,30.38
2023-03-20T16:06:19.585Z,24.70
2023-03-20T16:08:56.392Z,32.95
2023-03-20T16:11:22.908Z,31.00
2023-03-20T16:13:51.484Z,27.02
2023-03-20T16:16:24.584Z,26.70
2023-03-20T16:18:51.389Z,28.52
2023-03-20T16:21:22.262Z,31.35
2023-03-20T16:23:53.323Z,25.90
2023-03-20T16:26:22.632Z,33.17
2023-03-20T16:28:51.008Z,24.25
2023-03-20T16:31:20.023Z,24.10
2023-03-20T16:33:47.778Z,31.58
2023-03-20T16:36:20.751Z,28.17
2023-03-20T16:39:08.607Z,31.15
2023-03-20T16:41:37.636Z,28.60
2023-03-20T16:44:13.074Z,27.00
2023-03-20T16:47:06.288Z,34.88
2023-03-20T16:49:56.806Z,29.23
2023-03-20T16:52:32.699Z,27.92
2023-03-20T16:55:00.635Z,31.88
2023-03-20T16:57:33.114Z,30.85
2023-03-20T17:00:08.283Z,23.33
2023-03-20T17:02:41.027Z,27.63
2023-03-20T17:05:13.321Z,26.95
2023-03-20T17:07:41.934Z,22.42
2023-03-20T17:10:17.766Z,27.75
2023-03-20T17:12:47.356Z,29.27
2023-03-20T17:15:15.681Z,25.80
2023-03-20T17:17:43.080Z,30.67
2023-03-20T17:20:19.739Z,28.00
2023-03-20T17:22:46.399Z,28.10
2023-03-20T17:25:13.014Z,27.38
2023-03-20T17:27:40.835Z,30.27
2023-03-20T17:30:16.215Z,28.42
2023-03-20T17:32:42.860Z,25.10
2023-03-20T17:35:09.700Z,31.88
2023-03-20T17:37:36.370Z,29.05
2023-03-20T17:40:03.578Z,35.23
2023-03-20T17:42:31.464Z,33.83
2023-03-20T17:44:59.131Z,31.77
2023-03-20T17:47:27.605Z,27.73
2023-03-20T17:49:54.704Z,32.22
2023-03-20T17:52:23.688Z,31.27
2023-03-20T17:54:50.218Z,31.67
2023-03-20T17:57:21.378Z,30.85
2023-03-20T17:59:50.095Z,26.02
2023-03-20T18:02:18.325Z,44.67
2023-03-20T18:04:45.866Z,29.23
2023-03-20T18:07:13.392Z,30.55
2023-03-20T18:09:41.306Z,32.17
2023-03-20T18:12:16.634Z,29.50
2023-03-20T18:14:44.540Z,25.52
2023-03-20T18:17:15.780Z,24.20
2023-03-20T18:19:43.303Z,28.05
2023-03-20T18:22:10.130Z,27.10
2023-03-20T18:24:39.397Z,30.23
2023-03-20T18:27:06.212Z,27.95
2023-03-20T18:29:32.748Z,32.40
2023-03-20T18:31:59.236Z,28.67
2023-03-20T18:34:26.189Z,27.67
2023-03-20T18:36:52.770Z,27.02
2023-03-20T18:39:21.401Z,32.67
2023-03-20T18:41:48.305Z,25.93
2023-03-20T18:44:15.345Z,31.00
2023-03-20T18:46:41.995Z,29.00
2023-03-20T18:49:14.758Z,35.85
2023-03-20T18:51:41.288Z,28.80
2023-03-20T18:54:07.802Z,34.60
2023-03-20T18:56:36.846Z,26.23
2023-03-20T18:59:06.509Z,34.85
2023-03-20T19:01:34.041Z,34.17
2023-03-20T19:04:01.484Z,30.05
2023-03-20T19:06:56.207Z,35.57
2023-03-20T19:09:22.708Z,32.17
2023-03-20T19:11:50.839Z,38.70
2023-03-20T19:14:17.382Z,31.98
2023-03-20T19:16:43.995Z,37.33
2023-03-20T19:19:14.320Z,34.60
2023-03-20T19:21:41.880Z,31.33
2023-03-20T19:24:08.918Z,34.97
2023-03-20T19:26:37.017Z,30.80
2023-03-20T19:29:10.290Z,34.28
2023-03-20T19:31:37.705Z,31.30
2023-03-20T19:34:05.474Z,33.70
2023-03-20T19:36:36.141Z,35.17
2023-03-20T19:39:05.866Z,30.65
2023-03-20T19:41:33.765Z,35.50
2023-03-20T19:44:01.564Z,34.13
2023-03-20T19:46:39.611Z,37.35
2023-03-20T19:49:25.017Z,39.70
2023-03-20T19:51:56.519Z,37.85
2023-03-20T19:54:23.400Z,36.28
2023-03-20T19:56:49.945Z,42.63
2023-03-20T19:59:17.115Z,41.78
2023-03-20T20:01:45.531Z,39.95
2023-03-20T20:04:12.380Z,35.58
2023-03-20T20:06:39.885Z,43.22
2023-03-20T20:09:07.041Z,45.07
2023-03-20T20:11:33.553Z,39.60
2023-03-20T20:14:09.434Z,43.42
2023-03-20T20:16:39.579Z,43.95
2023-03-20T20:19:06.696Z,41.40
2023-03-20T20:24:20.051Z,44.65
2023-03-20T20:27:03.522Z,46.22
2023-03-20T20:29:37.729Z,47.08
2023-03-20T20:32:04.702Z,44.20
2023-03-20T20:40:12.679Z,50.40
2023-03-20T20:42:40.480Z,49.50
2023-03-20T20:45:08.875Z,49.00
2023-03-20T20:47:35.787Z,55.10
2023-03-20T20:50:04.177Z,47.45
2023-03-20T20:52:34.963Z,49.60
2023-03-20T20:55:21.198Z,51.13
2023-03-20T20:57:48.857Z,49.28
2023-03-20T21:00:16.504Z,46.77
2023-03-20T21:02:43.486Z,44.05
2023-03-20T21:05:12.624Z,46.25
2023-03-20T21:07:45.011Z,43.35
2023-03-20T21:10:13.728Z,47.30
2023-03-20T21:12:57.729Z,47.77
2023-03-20T21:15:25.428Z,47.65
2023-03-20T21:18:00.705Z,48.15
2023-03-20T21:20:32.454Z,50.72
2023-03-20T21:22:59.824Z,47.58
2023-03-20T21:25:39.287Z,44.87
2023-03-20T21:28:08.286Z,52.10
2023-03-20T21:30:35.189Z,49.92
2023-03-20T21:33:02.162Z,41.58
2023-03-20T21:35:28.822Z,48.17
2023-03-20T21:40:42.038Z,52.15
2023-03-20T21:43:09.403Z,52.17
2023-03-20T21:49:06.900Z,51.25
2023-03-20T21:52:06.389Z,57.17
2023-03-20T21:54:51.009Z,57.53
2023-03-20T22:00:05.394Z,53.28
2023-03-20T22:02:23.572Z,58.42
2023-03-20T22:05:52.984Z,57.00
2023-03-20T22:08:19.159Z,61.15
2023-03-20T22:11:20.194Z,56.15
2023-03-20T22:14:13.428Z,62.88
2023-03-20T22:16:57.561Z,58.78
2023-03-20T22:19:49.932Z,63.33
2023-03-20T22:22:23.181Z,69.28
2023-03-20T22:30:53.360Z,57.40
2023-03-20T22:33:41.075Z,65.77
2023-03-20T22:36:19.427Z,57.88
2023-03-20T22:39:14.252Z,64.35
2023-03-20T22:46:46.034Z,61.47
2023-03-20T22:49:13.499Z,69.50
2023-03-20T22:51:52.191Z,65.15
2023-03-20T22:54:24.378Z,64.80
2023-03-20T22:56:51.209Z,64.85
2023-03-20T22:59:17.745Z,64.10
2023-03-20T23:01:44.404Z,61.42
2023-03-20T23:04:10.902Z,64.90
2023-03-20T23:06:37.791Z,58.92
2023-03-20T23:09:14.533Z,65.70
2023-03-20T23:11:42.000Z,67.50
2023-03-20T23:14:18.175Z,62.67
2023-03-20T23:16:47.616Z,61.25
2023-03-20T23:19:14.294Z,64.65
2023-03-20T23:21:41.378Z,65.07
2023-03-20T23:24:08.160Z,62.47
2023-03-20T23:26:34.860Z,62.90
2023-03-20T23:29:03.339Z,56.53
2023-03-20T23:31:29.978Z,58.08
2023-03-20T23:33:57.812Z,60.35
2023-03-20T23:36:35.758Z,66.60
2023-03-20T23:39:04.489Z,69.53
2023-03-20T23:42:01.878Z,57.40
2023-03-20T23:44:18.326Z,57.63
2023-03-20T23:46:47.966Z,59.45
2023-03-20T23:49:14.698Z,61.30
2023-03-20T23:51:41.321Z,55.50
2023-03-20T23:54:07.837Z,61.17
2023-03-20T23:56:34.311Z,54.17
2023-03-20T23:59:08.317Z,57.58
